Gabriela Y Maria — EAMU — position and weather

sailwx.info

Track history (hours):
 
Tides and Currents Weather Stations Pressure Air Temp Water Temp Dewpoint Dewpoint Depression Visibility Wind Speed Wind Dir Waves Ship Positions

Gabriela Y Maria

Last reported at 2018-Jun-25 00:30 UTC. Time now 2018-Jun-25 00:43 UTC.
Position N 37°49' W 000°45'.

; draft 3 m.

Type: Fishing. MMSI: 224100530.

Date/timePositionNaut miles runAvg speedWind from/ knotsBaromVisibWave heightAir tempDewpointWater temp
2018-Jun-25 00:30N 37°49' W 000°45'0 0.0
2018-Jun-25 00:00N 37°49' W 000°45'0 0.0
2018-Jun-24 23:30N 37°49' W 000°45'0 0.0
2018-Jun-24 22:58N 37°49' W 000°45'0 0.0
2018-Jun-24 22:30N 37°49' W 000°45'0 0.0
2018-Jun-24 21:35N 37°49' W 000°45'0 0.0
2018-Jun-24 21:30N 37°49' W 000°45'0 0.0
2018-Jun-24 20:59N 37°49' W 000°45'0 0.0
2018-Jun-24 20:30N 37°49' W 000°45'0 0.0
2018-Jun-24 20:00N 37°49' W 000°45'0 0.0
2018-Jun-24 19:30N 37°49' W 000°45'0 0.0
2018-Jun-24 19:00N 37°49' W 000°45'0 0.0
2018-Jun-24 18:30N 37°49' W 000°45'0 0.0
2018-Jun-24 18:00N 37°49' W 000°45'0 0.0
2018-Jun-24 17:30N 37°49' W 000°45'0 0.0
2018-Jun-24 16:56N 37°49' W 000°45'0 0.0
2018-Jun-24 16:30N 37°49' W 000°45'0 0.0
2018-Jun-24 16:00N 37°49' W 000°45'0 0.0
2018-Jun-24 15:29N 37°49' W 000°45'0 0.0
2018-Jun-24 15:00N 37°49' W 000°45'0 0.0
2018-Jun-24 14:30N 37°49' W 000°45'0 0.0
2018-Jun-24 14:00N 37°49' W 000°45'0 0.0
2018-Jun-24 13:29N 37°49' W 000°45'0 0.0
2018-Jun-24 12:58N 37°49' W 000°45'0 0.0
2018-Jun-24 12:30N 37°49' W 000°45'0 0.2
2018-Jun-24 11:59N 37°49' W 000°45'4 8.3
2018-Jun-24 11:28N 37°51' W 000°40'4 8.2
2018-Jun-24 11:00N 37°55' W 000°38'4 8.3
2018-Jun-24 10:30N 37°59' W 000°37'1 0.1
2018-Jun-24 03:50N 37°59' W 000°36'3 8.1
2018-Jun-24 03:29N 37°56' W 000°36'4 8.1
2018-Jun-24 03:00N 37°52' W 000°37'4 8.1
2018-Jun-24 02:29N 37°48' W 000°38'4 8.0
2018-Jun-24 02:00N 37°44' W 000°39'4 8.0
2018-Jun-24 01:30N 37°41' W 000°40'4 8.0
2018-Jun-24 00:59N 37°36' W 000°41'4 7.9
2018-Jun-24 00:30N 37°34' W 000°44'4 8.0
2018-Jun-24 00:00N 37°31' W 000°48'4 7.9
2018-Jun-23 23:30N 37°29' W 000°52'1 0.4
2018-Jun-23 20:40N 37°30' W 000°52'1 8.8
2018-Jun-23 20:30N 37°30' W 000°51'4 8.9
2018-Jun-23 20:00N 37°33' W 000°46'6 9.0
2018-Jun-23 19:23N 37°37' W 000°41'4 8.5
2018-Jun-23 18:58N 37°40' W 000°40'4 8.6
2018-Jun-23 18:30N 37°44' W 000°41'4 8.5
2018-Jun-23 18:00N 37°48' W 000°43'2 3.8
2018-Jun-23 17:30N 37°49' W 000°45'0 0.0
2018-Jun-23 17:00N 37°49' W 000°45'0 0.0
2018-Jun-23 16:30N 37°49' W 000°45'0 0.0
2018-Jun-23 16:00N 37°49' W 000°45'0 0.0
2018-Jun-23 15:30N 37°49' W 000°45'0 0.0
2018-Jun-23 15:00N 37°49' W 000°45'0 0.0
2018-Jun-23 14:30N 37°49' W 000°45'0 0.0
2018-Jun-23 14:00N 37°49' W 000°45'0 0.0
2018-Jun-23 13:30N 37°49' W 000°45'0 0.0
2018-Jun-23 13:00N 37°49' W 000°45'0 0.0
2018-Jun-23 12:30N 37°49' W 000°45'0 0.0
2018-Jun-23 11:59N 37°49' W 000°45'0 0.0
2018-Jun-23 11:29N 37°49' W 000°45'0 0.0
2018-Jun-23 10:59N 37°49' W 000°45'0 0.0
2018-Jun-23 10:30N 37°49' W 000°45'0 0.0
2018-Jun-23 10:00N 37°49' W 000°45'0 0.0
2018-Jun-23 09:30N 37°49' W 000°45'0 0.0
2018-Jun-23 09:00N 37°49' W 000°45'0 0.0
2018-Jun-23 08:30N 37°49' W 000°45'0 0.0
2018-Jun-23 08:00N 37°49' W 000°45'0 0.0
2018-Jun-23 07:30N 37°49' W 000°45'0 0.0
2018-Jun-23 07:00N 37°49' W 000°45'0 0.0
2018-Jun-23 06:30N 37°49' W 000°45'0 0.0
2018-Jun-23 06:00N 37°49' W 000°45'0 0.0
2018-Jun-23 05:30N 37°49' W 000°45'0 0.0
2018-Jun-23 05:00N 37°49' W 000°45'0 0.0
2018-Jun-23 04:30N 37°49' W 000°45'0 0.0
2018-Jun-23 04:00N 37°49' W 000°45'0 0.0
2018-Jun-23 03:30N 37°49' W 000°45'0 0.0
2018-Jun-23 03:00N 37°49' W 000°45'0 0.0
2018-Jun-23 02:30N 37°49' W 000°45'0 0.0
2018-Jun-23 02:00N 37°49' W 000°45'0 0.0
2018-Jun-23 01:30N 37°49' W 000°45'0 0.0
2018-Jun-23 01:00N 37°49' W 000°45'0 0.0
2018-Jun-23 00:30N 37°49' W 000°45'0 0.0
2018-Jun-22 23:59N 37°49' W 000°45'0 0.0
2018-Jun-22 23:30N 37°49' W 000°45'0 0.0
2018-Jun-22 23:00N 37°49' W 000°45'0 0.0
2018-Jun-22 22:30N 37°49' W 000°45'0 0.0
2018-Jun-22 21:35N 37°49' W 000°45'0 0.0
2018-Jun-22 21:30N 37°49' W 000°45'0 0.0
2018-Jun-22 21:00N 37°49' W 000°45'0 0.0
2018-Jun-22 20:30N 37°49' W 000°45'0 0.0
2018-Jun-22 20:00N 37°49' W 000°45'0 0.0
2018-Jun-22 19:30N 37°49' W 000°45'0 0.0
2018-Jun-22 19:00N 37°49' W 000°45'0 0.0
2018-Jun-22 18:30N 37°49' W 000°45'0 0.0
2018-Jun-22 18:00N 37°49' W 000°45'0 0.0
2018-Jun-22 17:30N 37°49' W 000°45'0 0.0
2018-Jun-22 17:00N 37°49' W 000°45'0 0.0
2018-Jun-22 16:30N 37°49' W 000°45'0 0.0
2018-Jun-22 16:00N 37°49' W 000°45'0 0.0
2018-Jun-22 15:30N 37°49' W 000°45'0 0.0
2018-Jun-22 15:00N 37°49' W 000°45'0 0.9
2018-Jun-22 14:30N 37°49' W 000°45'4 7.8
2018-Jun-22 14:00N 37°50' W 000°40'8 2.9
2018-Jun-22 11:21N 37°47' W 000°31'2 7.0
2018-Jun-22 11:00N 37°45' W 000°33'4 7.7
2018-Jun-22 10:29N 37°41' W 000°35'4 8.2
2018-Jun-22 10:00N 37°38' W 000°38'7 7.8
2018-Jun-22 09:09N 37°34' W 000°44'1 7.6
2018-Jun-22 09:00N 37°33' W 000°45'4 7.7
2018-Jun-22 08:30N 37°30' W 000°49'2 4.1
2018-Jun-22 07:55N 37°31' W 000°51'3 8.4
2018-Jun-22 07:30N 37°32' W 000°55'4 0.2
2018-Jun-21 11:32N 37°31' W 000°50'2 9.1
2018-Jun-21 11:22N 37°32' W 000°48'11 8.5
2018-Jun-21 10:06N 37°37' W 000°37'1 8.5
2018-Jun-21 09:59N 37°37' W 000°35'12 3.1
2018-Jun-21 06:13N 37°49' W 000°38'1 6.1
2018-Jun-21 05:59N 37°50' W 000°39'3 6.8
2018-Jun-21 05:30N 37°50' W 000°43'2 3.4
2018-Jun-21 05:00N 37°49' W 000°45'0 0.0
2018-Jun-21 04:28N 37°49' W 000°45'0 0.0
2018-Jun-21 04:00N 37°49' W 000°45'0 0.0
2018-Jun-21 03:30N 37°49' W 000°45'0 0.0
2018-Jun-21 03:00N 37°49' W 000°45'0 0.0
2018-Jun-21 02:30N 37°49' W 000°45'0 0.0
2018-Jun-21 02:00N 37°49' W 000°45'0 0.0
2018-Jun-21 01:30N 37°49' W 000°45'0 0.0
2018-Jun-21 01:00N 37°49' W 000°45'0 0.0
2018-Jun-21 00:30N 37°49' W 000°45'0 0.0
2018-Jun-21 00:00N 37°49' W 000°45'0 0.0
2018-Jun-20 23:30N 37°49' W 000°45'0 0.0
2018-Jun-20 23:00N 37°49' W 000°45'0 0.0
2018-Jun-20 22:30N 37°49' W 000°45'0 0.0
2018-Jun-20 21:35N 37°49' W 000°45'0 0.1
2018-Jun-20 21:30N 37°49' W 000°45'0 0.0
2018-Jun-20 21:00N 37°49' W 000°45'0 0.0
2018-Jun-20 20:30N 37°49' W 000°45'0 0.0
2018-Jun-20 20:00N 37°49' W 000°45'0 0.0
2018-Jun-20 19:29N 37°49' W 000°45'0 0.0
2018-Jun-20 19:00N 37°49' W 000°45'0 0.0
2018-Jun-20 18:30N 37°49' W 000°45'0 0.0
2018-Jun-20 18:00N 37°49' W 000°45'0 0.0
2018-Jun-20 17:30N 37°49' W 000°45'0 0.0
2018-Jun-20 17:00N 37°49' W 000°45'0 0.0
2018-Jun-20 16:30N 37°49' W 000°45'0 0.0
2018-Jun-20 16:00N 37°49' W 000°45'0 0.0
2018-Jun-20 15:30N 37°49' W 000°45'0 0.0
2018-Jun-20 15:00N 37°49' W 000°45'0 0.0
2018-Jun-20 14:30N 37°49' W 000°45'0 0.0
2018-Jun-20 14:00N 37°49' W 000°45'0 0.0
2018-Jun-20 13:30N 37°49' W 000°45'0 0.0
2018-Jun-20 13:00N 37°49' W 000°45'0 0.0
2018-Jun-20 12:30N 37°49' W 000°45'0 0.0
2018-Jun-20 12:00N 37°49' W 000°45'0 0.0
2018-Jun-20 11:30N 37°49' W 000°45'0 0.0
2018-Jun-20 11:00N 37°49' W 000°45'4 7.3
2018-Jun-20 10:30N 37°46' W 000°42'4 8.1
2018-Jun-20 10:00N 37°43' W 000°40'4 8.2
2018-Jun-20 09:29N 37°38' W 000°40'4 7.3
2018-Jun-20 08:57N 37°35' W 000°43'3 7.7
2018-Jun-20 08:30N 37°34' W 000°47'4 8.0
2018-Jun-20 08:00N 37°33' W 000°52'4 0.4
2018-Jun-19 21:32N 37°32' W 000°57'1 7.2
2018-Jun-19 21:20N 37°31' W 000°55'0 0.9
2018-Jun-19 20:54N 37°32' W 000°55'2 6.2
2018-Jun-19 20:30N 37°29' W 000°54'3 3.8
2018-Jun-19 19:46N 37°29' W 000°51'2 7.2
2018-Jun-19 19:30N 37°30' W 000°49'4 8.5
2018-Jun-19 19:00N 37°33' W 000°45'5 8.5
2018-Jun-19 18:27N 37°37' W 000°41'4 8.3
2018-Jun-19 17:59N 37°40' W 000°40'4 8.5
2018-Jun-19 17:30N 37°44' W 000°37'6 2.8
2018-Jun-19 15:30N 37°49' W 000°35'1 1.4
2018-Jun-19 14:41N 37°50' W 000°34'0 0.6
2018-Jun-19 14:25N 37°50' W 000°34'2 3.6
2018-Jun-19 13:55N 37°52' W 000°33'4 3.9
2018-Jun-19 12:47N 37°50' W 000°39'2 7.7
2018-Jun-19 12:29N 37°50' W 000°42'3 5.8
2018-Jun-19 12:00N 37°49' W 000°45'0 0.0
2018-Jun-19 11:30N 37°49' W 000°45'0 0.0
2018-Jun-19 11:00N 37°49' W 000°45'0 0.0
2018-Jun-19 10:30N 37°49' W 000°45'0 0.0
2018-Jun-19 10:00N 37°49' W 000°45'0 0.0
2018-Jun-19 09:30N 37°49' W 000°45'0 0.0
2018-Jun-19 09:00N 37°49' W 000°45'0 0.0
2018-Jun-19 08:30N 37°49' W 000°45'0 0.0
2018-Jun-19 08:00N 37°49' W 000°45'0 0.0
2018-Jun-19 07:30N 37°49' W 000°45'0 0.0
2018-Jun-19 07:01N 37°49' W 000°45'0 0.0
2018-Jun-19 06:30N 37°49' W 000°45'0 0.0
2018-Jun-19 06:00N 37°49' W 000°45'0 0.0
2018-Jun-19 05:31N 37°49' W 000°45'4 7.2
2018-Jun-19 05:00N 37°51' W 000°41'4 8.5
2018-Jun-19 04:31N 37°55' W 000°39'4 8.7
2018-Jun-19 04:00N 37°59' W 000°37'4 0.2
2018-Jun-18 12:14N 38°03' W 000°35'310.8
2018-Jun-18 11:59N 38°00' W 000°36'510.0
2018-Jun-18 11:30N 37°55' W 000°38'4 8.7
2018-Jun-18 11:00N 37°51' W 000°40'4 8.4
2018-Jun-18 10:30N 37°49' W 000°44'1 2.4
2018-Jun-18 10:00N 37°48' W 000°44'4 7.8
2018-Jun-18 09:30N 37°47' W 000°39'4 7.2
2018-Jun-18 09:01N 37°46' W 000°35'1 2.0
2018-Jun-18 08:29N 37°46' W 000°34'3 2.3
2018-Jun-18 07:19N 37°48' W 000°35'1 4.3
2018-Jun-18 07:00N 37°49' W 000°36'2 2.6
2018-Jun-18 06:25N 37°51' W 000°35'3 5.4
2018-Jun-18 05:47N 37°50' W 000°40'2 7.6
2018-Jun-18 05:29N 37°50' W 000°43'2 4.4
2018-Jun-18 05:01N 37°49' W 000°45'0 0.0
2018-Jun-18 04:30N 37°49' W 000°45'0 0.0
2018-Jun-18 04:00N 37°49' W 000°45'0 0.0
2018-Jun-18 03:30N 37°49' W 000°45'0 0.0
2018-Jun-18 03:00N 37°49' W 000°45'0 0.0
2018-Jun-18 02:30N 37°49' W 000°45'0 0.0
2018-Jun-18 02:00N 37°49' W 000°45'0 0.0
2018-Jun-18 01:30N 37°49' W 000°45'0 0.0
2018-Jun-18 01:00N 37°49' W 000°45'0 0.0
2018-Jun-18 00:30N 37°49' W 000°45'0 0.0
2018-Jun-18 00:00N 37°49' W 000°45'0 0.0
2018-Jun-17 23:31N 37°49' W 000°45'0 0.0
2018-Jun-17 23:00N 37°49' W 000°45'0 0.0
2018-Jun-17 22:30N 37°49' W 000°45'0 0.0
2018-Jun-17 21:36N 37°49' W 000°45'0 0.0
2018-Jun-17 21:30N 37°49' W 000°45'0 0.0
2018-Jun-17 21:00N 37°49' W 000°45'0 0.0
2018-Jun-17 20:30N 37°49' W 000°45'0 0.3
2018-Jun-17 20:01N 37°49' W 000°45'4 8.0
2018-Jun-17 19:31N 37°46' W 000°42'4 8.2
2018-Jun-17 19:00N 37°42' W 000°40'4 8.4
2018-Jun-17 18:30N 37°38' W 000°40'4 7.6
2018-Jun-17 17:59N 37°35' W 000°44'4 7.9
2018-Jun-17 17:29N 37°33' W 000°48'4 7.7
2018-Jun-17 17:00N 37°33' W 000°53'2 0.3
2018-Jun-17 10:27N 37°32' W 000°55'2 5.5
2018-Jun-17 10:00N 37°33' W 000°52'0 0.4
2018-Jun-17 09:30N 37°33' W 000°52'0 0.8
2018-Jun-17 08:57N 37°32' W 000°52'7 6.7
2018-Jun-17 07:53N 37°25' W 000°53'0 0.2
2018-Jun-17 07:30N 37°25' W 000°53'0 0.2
2018-Jun-17 07:01N 37°25' W 000°53'5 4.1
2018-Jun-17 05:52N 37°30' W 000°54'0 0.1
2018-Jun-17 05:28N 37°30' W 000°54'0 0.1
2018-Jun-17 05:00N 37°30' W 000°54'0 0.1
2018-Jun-17 04:30N 37°30' W 000°54'1 1.6
2018-Jun-17 03:55N 37°29' W 000°54'2 5.7
2018-Jun-17 03:30N 37°27' W 000°53'1 0.8
2018-Jun-17 01:51N 37°28' W 000°52'0 0.8
2018-Jun-17 01:31N 37°28' W 000°52'1 0.7
2018-Jun-17 00:07N 37°29' W 000°51'2 0.7
2018-Jun-16 20:49N 37°28' W 000°49'0 0.3
2018-Jun-16 20:30N 37°28' W 000°49'0 0.5
2018-Jun-16 19:36N 37°28' W 000°49'2 1.2
2018-Jun-16 18:11N 37°30' W 000°48'1 8.6
2018-Jun-16 18:01N 37°31' W 000°47'5 8.5
2018-Jun-16 17:28N 37°34' W 000°43'4 8.6
2018-Jun-16 16:59N 37°38' W 000°41'4 8.4
2018-Jun-16 16:31N 37°42' W 000°39'4 8.3
2018-Jun-16 16:00N 37°46' W 000°38'4 8.2
2018-Jun-16 15:30N 37°50' W 000°36'2 3.6
2018-Jun-16 15:01N 37°51' W 000°36'2 3.0
2018-Jun-16 14:29N 37°51' W 000°38'4 8.0
2018-Jun-16 14:00N 37°50' W 000°42'2 4.4
2018-Jun-16 13:30N 37°49' W 000°45'1 2.9
2018-Jun-16 13:00N 37°50' W 000°43'4 8.0
2018-Jun-16 12:30N 37°52' W 000°40'4 8.6
2018-Jun-16 12:00N 37°56' W 000°38'4 8.7
2018-Jun-16 11:30N 38°00' W 000°36'4 8.5
2018-Jun-16 11:00N 38°05' W 000°34'4 8.2
2018-Jun-16 10:28N 38°09' W 000°34'10 1.0
2018-Jun-16 00:15N 37°59' W 000°36'2 8.1
2018-Jun-16 00:00N 37°57' W 000°36'4 8.2
2018-Jun-15 23:31N 37°53' W 000°36'4 8.6
2018-Jun-15 23:01N 37°49' W 000°36'4 8.7
2018-Jun-15 22:30N 37°44' W 000°36'8 8.2
2018-Jun-15 21:35N 37°37' W 000°37'1 8.3
2018-Jun-15 21:30N 37°36' W 000°37'5 8.4
2018-Jun-15 20:53N 37°31' W 000°38'3 5.5
2018-Jun-15 20:25N 37°30' W 000°41'4 9.2
2018-Jun-15 20:00N 37°30' W 000°45'5 9.3
2018-Jun-15 19:30N 37°30' W 000°51'3 6.9
2018-Jun-15 19:00N 37°31' W 000°55'1 1.1
2018-Jun-15 18:16N 37°32' W 000°55'3 8.2
2018-Jun-15 17:55N 37°33' W 000°52'4 8.6
2018-Jun-15 17:26N 37°34' W 000°47'4 8.1
2018-Jun-15 17:00N 37°35' W 000°43'4 8.0
2018-Jun-15 16:30N 37°39' W 000°40'4 8.4
2018-Jun-15 15:59N 37°43' W 000°38'3 5.6
2018-Jun-15 15:30N 37°45' W 000°36'0 0.1
2018-Jun-15 15:00N 37°45' W 000°36'0 0.4
2018-Jun-15 14:30N 37°45' W 000°36'5 9.0
2018-Jun-15 14:00N 37°50' W 000°36'3 5.4
2018-Jun-15 13:30N 37°52' W 000°36'5 9.2
2018-Jun-15 13:00N 37°51' W 000°41'3 6.6
2018-Jun-15 12:30N 37°49' W 000°45'2 4.8
2018-Jun-15 12:00N 37°48' W 000°43'4 8.4
2018-Jun-15 11:30N 37°45' W 000°39'3 6.2
2018-Jun-15 11:00N 37°44' W 000°35'1 2.4
2018-Jun-15 10:30N 37°45' W 000°35'4 2.8
2018-Jun-15 09:12N 37°49' W 000°35'2 8.6
2018-Jun-15 08:55N 37°51' W 000°36'1 1.6
2018-Jun-15 08:30N 37°52' W 000°36'1 1.6
2018-Jun-15 08:00N 37°52' W 000°35'0 0.3
2018-Jun-15 07:30N 37°52' W 000°35'4 8.2
2018-Jun-15 07:00N 37°51' W 000°40'4 8.2
2018-Jun-15 06:31N 37°49' W 000°45'0 0.7
2018-Jun-15 06:00N 37°49' W 000°45'0 0.0
2018-Jun-15 05:31N 37°49' W 000°45'0 0.0
2018-Jun-15 05:00N 37°49' W 000°45'0 0.0
2018-Jun-15 04:31N 37°49' W 000°45'0 0.0
2018-Jun-15 04:00N 37°49' W 000°45'0 0.0
2018-Jun-15 03:31N 37°49' W 000°45'0 0.0
2018-Jun-15 03:00N 37°49' W 000°45'0 0.0
2018-Jun-15 02:31N 37°49' W 000°45'0 0.0
2018-Jun-15 02:01N 37°49' W 000°45'0 0.0
2018-Jun-15 01:30N 37°49' W 000°45'0 0.0
2018-Jun-15 01:00N 37°49' W 000°45'  
Track history (hours):
 
Tides and Currents Weather Stations Pressure Air Temp Water Temp Dewpoint Dewpoint Depression Visibility Wind Speed Wind Dir Waves Ship Positions

Gabriela Y Maria

Last reported at 2018-Jun-25 00:30 UTC. Time now 2018-Jun-25 00:43 UTC.
Position N 37°49' W 000°45'.

; draft 3 m.

Type: Fishing. MMSI: 224100530.

Date/timePositionNaut miles runAvg speedWind from/ knotsBaromVisibWave heightAir tempDewpointWater temp
2018-Jun-25 00:30N 37°49' W 000°45'0 0.0
2018-Jun-25 00:00N 37°49' W 000°45'0 0.0
2018-Jun-24 23:30N 37°49' W 000°45'0 0.0
2018-Jun-24 22:58N 37°49' W 000°45'0 0.0
2018-Jun-24 22:30N 37°49' W 000°45'0 0.0
2018-Jun-24 21:35N 37°49' W 000°45'0 0.0
2018-Jun-24 21:30N 37°49' W 000°45'0 0.0
2018-Jun-24 20:59N 37°49' W 000°45'0 0.0
2018-Jun-24 20:30N 37°49' W 000°45'0 0.0
2018-Jun-24 20:00N 37°49' W 000°45'0 0.0
2018-Jun-24 19:30N 37°49' W 000°45'0 0.0
2018-Jun-24 19:00N 37°49' W 000°45'0 0.0
2018-Jun-24 18:30N 37°49' W 000°45'0 0.0
2018-Jun-24 18:00N 37°49' W 000°45'0 0.0
2018-Jun-24 17:30N 37°49' W 000°45'0 0.0
2018-Jun-24 16:56N 37°49' W 000°45'0 0.0
2018-Jun-24 16:30N 37°49' W 000°45'0 0.0
2018-Jun-24 16:00N 37°49' W 000°45'0 0.0
2018-Jun-24 15:29N 37°49' W 000°45'0 0.0
2018-Jun-24 15:00N 37°49' W 000°45'0 0.0
2018-Jun-24 14:30N 37°49' W 000°45'0 0.0
2018-Jun-24 14:00N 37°49' W 000°45'0 0.0
2018-Jun-24 13:29N 37°49' W 000°45'0 0.0
2018-Jun-24 12:58N 37°49' W 000°45'0 0.0
2018-Jun-24 12:30N 37°49' W 000°45'0 0.2
2018-Jun-24 11:59N 37°49' W 000°45'4 8.3
2018-Jun-24 11:28N 37°51' W 000°40'4 8.2
2018-Jun-24 11:00N 37°55' W 000°38'4 8.3
2018-Jun-24 10:30N 37°59' W 000°37'1 0.1
2018-Jun-24 03:50N 37°59' W 000°36'3 8.1
2018-Jun-24 03:29N 37°56' W 000°36'4 8.1
2018-Jun-24 03:00N 37°52' W 000°37'4 8.1
2018-Jun-24 02:29N 37°48' W 000°38'4 8.0
2018-Jun-24 02:00N 37°44' W 000°39'4 8.0
2018-Jun-24 01:30N 37°41' W 000°40'4 8.0
2018-Jun-24 00:59N 37°36' W 000°41'4 7.9
2018-Jun-24 00:30N 37°34' W 000°44'4 8.0
2018-Jun-24 00:00N 37°31' W 000°48'4 7.9
2018-Jun-23 23:30N 37°29' W 000°52'1 0.4
2018-Jun-23 20:40N 37°30' W 000°52'1 8.8
2018-Jun-23 20:30N 37°30' W 000°51'4 8.9
2018-Jun-23 20:00N 37°33' W 000°46'6 9.0
2018-Jun-23 19:23N 37°37' W 000°41'4 8.5
2018-Jun-23 18:58N 37°40' W 000°40'4 8.6
2018-Jun-23 18:30N 37°44' W 000°41'4 8.5
2018-Jun-23 18:00N 37°48' W 000°43'2 3.8
2018-Jun-23 17:30N 37°49' W 000°45'0 0.0
2018-Jun-23 17:00N 37°49' W 000°45'0 0.0
2018-Jun-23 16:30N 37°49' W 000°45'0 0.0
2018-Jun-23 16:00N 37°49' W 000°45'0 0.0
2018-Jun-23 15:30N 37°49' W 000°45'0 0.0
2018-Jun-23 15:00N 37°49' W 000°45'0 0.0
2018-Jun-23 14:30N 37°49' W 000°45'0 0.0
2018-Jun-23 14:00N 37°49' W 000°45'0 0.0
2018-Jun-23 13:30N 37°49' W 000°45'0 0.0
2018-Jun-23 13:00N 37°49' W 000°45'0 0.0
2018-Jun-23 12:30N 37°49' W 000°45'0 0.0
2018-Jun-23 11:59N 37°49' W 000°45'0 0.0
2018-Jun-23 11:29N 37°49' W 000°45'0 0.0
2018-Jun-23 10:59N 37°49' W 000°45'0 0.0
2018-Jun-23 10:30N 37°49' W 000°45'0 0.0
2018-Jun-23 10:00N 37°49' W 000°45'0 0.0
2018-Jun-23 09:30N 37°49' W 000°45'0 0.0
2018-Jun-23 09:00N 37°49' W 000°45'0 0.0
2018-Jun-23 08:30N 37°49' W 000°45'0 0.0
2018-Jun-23 08:00N 37°49' W 000°45'0 0.0
2018-Jun-23 07:30N 37°49' W 000°45'0 0.0
2018-Jun-23 07:00N 37°49' W 000°45'0 0.0
2018-Jun-23 06:30N 37°49' W 000°45'0 0.0
2018-Jun-23 06:00N 37°49' W 000°45'0 0.0
2018-Jun-23 05:30N 37°49' W 000°45'0 0.0
2018-Jun-23 05:00N 37°49' W 000°45'0 0.0
2018-Jun-23 04:30N 37°49' W 000°45'0 0.0
2018-Jun-23 04:00N 37°49' W 000°45'0 0.0
2018-Jun-23 03:30N 37°49' W 000°45'0 0.0
2018-Jun-23 03:00N 37°49' W 000°45'0 0.0
2018-Jun-23 02:30N 37°49' W 000°45'0 0.0
2018-Jun-23 02:00N 37°49' W 000°45'0 0.0
2018-Jun-23 01:30N 37°49' W 000°45'0 0.0
2018-Jun-23 01:00N 37°49' W 000°45'0 0.0
2018-Jun-23 00:30N 37°49' W 000°45'0 0.0
2018-Jun-22 23:59N 37°49' W 000°45'0 0.0
2018-Jun-22 23:30N 37°49' W 000°45'0 0.0
2018-Jun-22 23:00N 37°49' W 000°45'0 0.0
2018-Jun-22 22:30N 37°49' W 000°45'0 0.0
2018-Jun-22 21:35N 37°49' W 000°45'0 0.0
2018-Jun-22 21:30N 37°49' W 000°45'0 0.0
2018-Jun-22 21:00N 37°49' W 000°45'0 0.0
2018-Jun-22 20:30N 37°49' W 000°45'0 0.0
2018-Jun-22 20:00N 37°49' W 000°45'0 0.0
2018-Jun-22 19:30N 37°49' W 000°45'0 0.0
2018-Jun-22 19:00N 37°49' W 000°45'0 0.0
2018-Jun-22 18:30N 37°49' W 000°45'0 0.0
2018-Jun-22 18:00N 37°49' W 000°45'0 0.0
2018-Jun-22 17:30N 37°49' W 000°45'0 0.0
2018-Jun-22 17:00N 37°49' W 000°45'0 0.0
2018-Jun-22 16:30N 37°49' W 000°45'0 0.0
2018-Jun-22 16:00N 37°49' W 000°45'0 0.0
2018-Jun-22 15:30N 37°49' W 000°45'0 0.0
2018-Jun-22 15:00N 37°49' W 000°45'0 0.9
2018-Jun-22 14:30N 37°49' W 000°45'4 7.8
2018-Jun-22 14:00N 37°50' W 000°40'8 2.9
2018-Jun-22 11:21N 37°47' W 000°31'2 7.0
2018-Jun-22 11:00N 37°45' W 000°33'4 7.7
2018-Jun-22 10:29N 37°41' W 000°35'4 8.2
2018-Jun-22 10:00N 37°38' W 000°38'7 7.8
2018-Jun-22 09:09N 37°34' W 000°44'1 7.6
2018-Jun-22 09:00N 37°33' W 000°45'4 7.7
2018-Jun-22 08:30N 37°30' W 000°49'2 4.1
2018-Jun-22 07:55N 37°31' W 000°51'3 8.4
2018-Jun-22 07:30N 37°32' W 000°55'4 0.2
2018-Jun-21 11:32N 37°31' W 000°50'2 9.1
2018-Jun-21 11:22N 37°32' W 000°48'11 8.5
2018-Jun-21 10:06N 37°37' W 000°37'1 8.5
2018-Jun-21 09:59N 37°37' W 000°35'12 3.1
2018-Jun-21 06:13N 37°49' W 000°38'1 6.1
2018-Jun-21 05:59N 37°50' W 000°39'3 6.8
2018-Jun-21 05:30N 37°50' W 000°43'2 3.4
2018-Jun-21 05:00N 37°49' W 000°45'0 0.0
2018-Jun-21 04:28N 37°49' W 000°45'0 0.0
2018-Jun-21 04:00N 37°49' W 000°45'0 0.0
2018-Jun-21 03:30N 37°49' W 000°45'0 0.0
2018-Jun-21 03:00N 37°49' W 000°45'0 0.0
2018-Jun-21 02:30N 37°49' W 000°45'0 0.0
2018-Jun-21 02:00N 37°49' W 000°45'0 0.0
2018-Jun-21 01:30N 37°49' W 000°45'0 0.0
2018-Jun-21 01:00N 37°49' W 000°45'0 0.0
2018-Jun-21 00:30N 37°49' W 000°45'0 0.0
2018-Jun-21 00:00N 37°49' W 000°45'0 0.0
2018-Jun-20 23:30N 37°49' W 000°45'0 0.0
2018-Jun-20 23:00N 37°49' W 000°45'0 0.0
2018-Jun-20 22:30N 37°49' W 000°45'0 0.0
2018-Jun-20 21:35N 37°49' W 000°45'0 0.1
2018-Jun-20 21:30N 37°49' W 000°45'0 0.0
2018-Jun-20 21:00N 37°49' W 000°45'0 0.0
2018-Jun-20 20:30N 37°49' W 000°45'0 0.0
2018-Jun-20 20:00N 37°49' W 000°45'0 0.0
2018-Jun-20 19:29N 37°49' W 000°45'0 0.0
2018-Jun-20 19:00N 37°49' W 000°45'0 0.0
2018-Jun-20 18:30N 37°49' W 000°45'0 0.0
2018-Jun-20 18:00N 37°49' W 000°45'0 0.0
2018-Jun-20 17:30N 37°49' W 000°45'0 0.0
2018-Jun-20 17:00N 37°49' W 000°45'0 0.0
2018-Jun-20 16:30N 37°49' W 000°45'0 0.0
2018-Jun-20 16:00N 37°49' W 000°45'0 0.0
2018-Jun-20 15:30N 37°49' W 000°45'0 0.0
2018-Jun-20 15:00N 37°49' W 000°45'0 0.0
2018-Jun-20 14:30N 37°49' W 000°45'0 0.0
2018-Jun-20 14:00N 37°49' W 000°45'0 0.0
2018-Jun-20 13:30N 37°49' W 000°45'0 0.0
2018-Jun-20 13:00N 37°49' W 000°45'0 0.0
2018-Jun-20 12:30N 37°49' W 000°45'0 0.0
2018-Jun-20 12:00N 37°49' W 000°45'0 0.0
2018-Jun-20 11:30N 37°49' W 000°45'0 0.0
2018-Jun-20 11:00N 37°49' W 000°45'4 7.3
2018-Jun-20 10:30N 37°46' W 000°42'4 8.1
2018-Jun-20 10:00N 37°43' W 000°40'4 8.2
2018-Jun-20 09:29N 37°38' W 000°40'4 7.3
2018-Jun-20 08:57N 37°35' W 000°43'3 7.7
2018-Jun-20 08:30N 37°34' W 000°47'4 8.0
2018-Jun-20 08:00N 37°33' W 000°52'4 0.4
2018-Jun-19 21:32N 37°32' W 000°57'1 7.2
2018-Jun-19 21:20N 37°31' W 000°55'0 0.9
2018-Jun-19 20:54N 37°32' W 000°55'2 6.2
2018-Jun-19 20:30N 37°29' W 000°54'3 3.8
2018-Jun-19 19:46N 37°29' W 000°51'2 7.2
2018-Jun-19 19:30N 37°30' W 000°49'4 8.5
2018-Jun-19 19:00N 37°33' W 000°45'5 8.5
2018-Jun-19 18:27N 37°37' W 000°41'4 8.3
2018-Jun-19 17:59N 37°40' W 000°40'4 8.5
2018-Jun-19 17:30N 37°44' W 000°37'6 2.8
2018-Jun-19 15:30N 37°49' W 000°35'1 1.4
2018-Jun-19 14:41N 37°50' W 000°34'0 0.6
2018-Jun-19 14:25N 37°50' W 000°34'2 3.6
2018-Jun-19 13:55N 37°52' W 000°33'4 3.9
2018-Jun-19 12:47N 37°50' W 000°39'2 7.7
2018-Jun-19 12:29N 37°50' W 000°42'3 5.8
2018-Jun-19 12:00N 37°49' W 000°45'0 0.0
2018-Jun-19 11:30N 37°49' W 000°45'0 0.0
2018-Jun-19 11:00N 37°49' W 000°45'0 0.0
2018-Jun-19 10:30N 37°49' W 000°45'0 0.0
2018-Jun-19 10:00N 37°49' W 000°45'0 0.0
2018-Jun-19 09:30N 37°49' W 000°45'0 0.0
2018-Jun-19 09:00N 37°49' W 000°45'0 0.0
2018-Jun-19 08:30N 37°49' W 000°45'0 0.0
2018-Jun-19 08:00N 37°49' W 000°45'0 0.0
2018-Jun-19 07:30N 37°49' W 000°45'0 0.0
2018-Jun-19 07:01N 37°49' W 000°45'0 0.0
2018-Jun-19 06:30N 37°49' W 000°45'0 0.0
2018-Jun-19 06:00N 37°49' W 000°45'0 0.0
2018-Jun-19 05:31N 37°49' W 000°45'4 7.2
2018-Jun-19 05:00N 37°51' W 000°41'4 8.5
2018-Jun-19 04:31N 37°55' W 000°39'4 8.7
2018-Jun-19 04:00N 37°59' W 000°37'4 0.2
2018-Jun-18 12:14N 38°03' W 000°35'310.8
2018-Jun-18 11:59N 38°00' W 000°36'510.0
2018-Jun-18 11:30N 37°55' W 000°38'4 8.7
2018-Jun-18 11:00N 37°51' W 000°40'4 8.4
2018-Jun-18 10:30N 37°49' W 000°44'1 2.4
2018-Jun-18 10:00N 37°48' W 000°44'4 7.8
2018-Jun-18 09:30N 37°47' W 000°39'4 7.2
2018-Jun-18 09:01N 37°46' W 000°35'1 2.0
2018-Jun-18 08:29N 37°46' W 000°34'3 2.3
2018-Jun-18 07:19N 37°48' W 000°35'1 4.3
2018-Jun-18 07:00N 37°49' W 000°36'2 2.6
2018-Jun-18 06:25N 37°51' W 000°35'3 5.4
2018-Jun-18 05:47N 37°50' W 000°40'2 7.6
2018-Jun-18 05:29N 37°50' W 000°43'2 4.4
2018-Jun-18 05:01N 37°49' W 000°45'0 0.0
2018-Jun-18 04:30N 37°49' W 000°45'0 0.0
2018-Jun-18 04:00N 37°49' W 000°45'0 0.0
2018-Jun-18 03:30N 37°49' W 000°45'0 0.0
2018-Jun-18 03:00N 37°49' W 000°45'0 0.0
2018-Jun-18 02:30N 37°49' W 000°45'0 0.0
2018-Jun-18 02:00N 37°49' W 000°45'0 0.0
2018-Jun-18 01:30N 37°49' W 000°45'0 0.0
2018-Jun-18 01:00N 37°49' W 000°45'0 0.0
2018-Jun-18 00:30N 37°49' W 000°45'0 0.0
2018-Jun-18 00:00N 37°49' W 000°45'0 0.0
2018-Jun-17 23:31N 37°49' W 000°45'0 0.0
2018-Jun-17 23:00N 37°49' W 000°45'0 0.0
2018-Jun-17 22:30N 37°49' W 000°45'0 0.0
2018-Jun-17 21:36N 37°49' W 000°45'0 0.0
2018-Jun-17 21:30N 37°49' W 000°45'0 0.0
2018-Jun-17 21:00N 37°49' W 000°45'0 0.0
2018-Jun-17 20:30N 37°49' W 000°45'0 0.3
2018-Jun-17 20:01N 37°49' W 000°45'4 8.0
2018-Jun-17 19:31N 37°46' W 000°42'4 8.2
2018-Jun-17 19:00N 37°42' W 000°40'4 8.4
2018-Jun-17 18:30N 37°38' W 000°40'4 7.6
2018-Jun-17 17:59N 37°35' W 000°44'4 7.9
2018-Jun-17 17:29N 37°33' W 000°48'4 7.7
2018-Jun-17 17:00N 37°33' W 000°53'2 0.3
2018-Jun-17 10:27N 37°32' W 000°55'2 5.5
2018-Jun-17 10:00N 37°33' W 000°52'0 0.4
2018-Jun-17 09:30N 37°33' W 000°52'0 0.8
2018-Jun-17 08:57N 37°32' W 000°52'7 6.7
2018-Jun-17 07:53N 37°25' W 000°53'0 0.2
2018-Jun-17 07:30N 37°25' W 000°53'0 0.2
2018-Jun-17 07:01N 37°25' W 000°53'5 4.1
2018-Jun-17 05:52N 37°30' W 000°54'0 0.1
2018-Jun-17 05:28N 37°30' W 000°54'0 0.1
2018-Jun-17 05:00N 37°30' W 000°54'0 0.1
2018-Jun-17 04:30N 37°30' W 000°54'1 1.6
2018-Jun-17 03:55N 37°29' W 000°54'2 5.7
2018-Jun-17 03:30N 37°27' W 000°53'1 0.8
2018-Jun-17 01:51N 37°28' W 000°52'0 0.8
2018-Jun-17 01:31N 37°28' W 000°52'1 0.7
2018-Jun-17 00:07N 37°29' W 000°51'2 0.7
2018-Jun-16 20:49N 37°28' W 000°49'0 0.3
2018-Jun-16 20:30N 37°28' W 000°49'0 0.5
2018-Jun-16 19:36N 37°28' W 000°49'2 1.2
2018-Jun-16 18:11N 37°30' W 000°48'1 8.6
2018-Jun-16 18:01N 37°31' W 000°47'5 8.5
2018-Jun-16 17:28N 37°34' W 000°43'4 8.6
2018-Jun-16 16:59N 37°38' W 000°41'4 8.4
2018-Jun-16 16:31N 37°42' W 000°39'4 8.3
2018-Jun-16 16:00N 37°46' W 000°38'4 8.2
2018-Jun-16 15:30N 37°50' W 000°36'2 3.6
2018-Jun-16 15:01N 37°51' W 000°36'2 3.0
2018-Jun-16 14:29N 37°51' W 000°38'4 8.0
2018-Jun-16 14:00N 37°50' W 000°42'2 4.4
2018-Jun-16 13:30N 37°49' W 000°45'1 2.9
2018-Jun-16 13:00N 37°50' W 000°43'4 8.0
2018-Jun-16 12:30N 37°52' W 000°40'4 8.6
2018-Jun-16 12:00N 37°56' W 000°38'4 8.7
2018-Jun-16 11:30N 38°00' W 000°36'4 8.5
2018-Jun-16 11:00N 38°05' W 000°34'4 8.2
2018-Jun-16 10:28N 38°09' W 000°34'10 1.0
2018-Jun-16 00:15N 37°59' W 000°36'2 8.1
2018-Jun-16 00:00N 37°57' W 000°36'4 8.2
2018-Jun-15 23:31N 37°53' W 000°36'4 8.6
2018-Jun-15 23:01N 37°49' W 000°36'4 8.7
2018-Jun-15 22:30N 37°44' W 000°36'8 8.2
2018-Jun-15 21:35N 37°37' W 000°37'1 8.3
2018-Jun-15 21:30N 37°36' W 000°37'5 8.4
2018-Jun-15 20:53N 37°31' W 000°38'3 5.5
2018-Jun-15 20:25N 37°30' W 000°41'4 9.2
2018-Jun-15 20:00N 37°30' W 000°45'5 9.3
2018-Jun-15 19:30N 37°30' W 000°51'3 6.9
2018-Jun-15 19:00N 37°31' W 000°55'1 1.1
2018-Jun-15 18:16N 37°32' W 000°55'3 8.2
2018-Jun-15 17:55N 37°33' W 000°52'4 8.6
2018-Jun-15 17:26N 37°34' W 000°47'4 8.1
2018-Jun-15 17:00N 37°35' W 000°43'4 8.0
2018-Jun-15 16:30N 37°39' W 000°40'4 8.4
2018-Jun-15 15:59N 37°43' W 000°38'3 5.6
2018-Jun-15 15:30N 37°45' W 000°36'0 0.1
2018-Jun-15 15:00N 37°45' W 000°36'0 0.4
2018-Jun-15 14:30N 37°45' W 000°36'5 9.0
2018-Jun-15 14:00N 37°50' W 000°36'3 5.4
2018-Jun-15 13:30N 37°52' W 000°36'5 9.2
2018-Jun-15 13:00N 37°51' W 000°41'3 6.6
2018-Jun-15 12:30N 37°49' W 000°45'2 4.8
2018-Jun-15 12:00N 37°48' W 000°43'4 8.4
2018-Jun-15 11:30N 37°45' W 000°39'3 6.2
2018-Jun-15 11:00N 37°44' W 000°35'1 2.4
2018-Jun-15 10:30N 37°45' W 000°35'4 2.8
2018-Jun-15 09:12N 37°49' W 000°35'2 8.6
2018-Jun-15 08:55N 37°51' W 000°36'1 1.6
2018-Jun-15 08:30N 37°52' W 000°36'1 1.6
2018-Jun-15 08:00N 37°52' W 000°35'0 0.3
2018-Jun-15 07:30N 37°52' W 000°35'4 8.2
2018-Jun-15 07:00N 37°51' W 000°40'4 8.2
2018-Jun-15 06:31N 37°49' W 000°45'0 0.7
2018-Jun-15 06:00N 37°49' W 000°45'0 0.0
2018-Jun-15 05:31N 37°49' W 000°45'0 0.0
2018-Jun-15 05:00N 37°49' W 000°45'0 0.0
2018-Jun-15 04:31N 37°49' W 000°45'0 0.0
2018-Jun-15 04:00N 37°49' W 000°45'0 0.0
2018-Jun-15 03:31N 37°49' W 000°45'0 0.0
2018-Jun-15 03:00N 37°49' W 000°45'0 0.0
2018-Jun-15 02:31N 37°49' W 000°45'0 0.0
2018-Jun-15 02:01N 37°49' W 000°45'0 0.0
2018-Jun-15 01:30N 37°49' W 000°45'0 0.0
2018-Jun-15 01:00N 37°49' W 000°45'  

Dump ship's entire track history